Monday, June 25, 2018, 12:42 AM GMT
Back to Local

CYYG, Charlottetown, P. E. I.

Location: , , Canada Lat: 46.283
Local Time: 12:42 AM GMT ( 0:42 GMT) Lon: -63.133
Time Zone: GMT Elev: 157 ft

Show me the last for .
Show Decoded

2018-06-25 00:00 METAR CYYG 250000Z 35006KT 320V030 6SM BR OVC006 12/10 A2983 RMK SF8 SLP103 =
2018-06-24 23:53 METAR CYYG 242353Z 34007KT 6SM BR OVC006 12/11 A2982 RMK SF8 SLP102 =
2018-06-24 23:00 METAR CYYG 242300Z 34007KT 300V010 15SM SCT008 SCT038 OVC100 13/11 A2981 RMK
                 SF3SC1AC4 SLP098 =
2018-06-24 22:57 METAR CYYG 242257Z 34008KT 300V010 15SM SCT008 SCT038 OVC100 13/11 A2981 RMK
                 SF3SC1AC4 SLP097 =
2018-06-24 22:00 METAR CYYG 242200Z 34007KT 15SM FEW011 SCT038 OVC100 15/12 A2978 RMK SC1SC3AC5
                 SC TR SLP086 DENSITY ALT 400FT =
2018-06-24 21:00 METAR CYYG 242100Z 36006KT 15SM FEW011 SCT033 BKN048 BKN140 16/12 A2976 RMK
                 SC1SC3SC2AC1 SLP080 DENSITY ALT 500FT =
2018-06-24 20:27 METAR CYYG 242027Z 01013G19KT 15SM SCT011 BKN033 BKN140 15/12 A2976 RMK
                 SC3SC2AC2 SLP079 DENSITY ALT 400FT =
2018-06-24 20:16 METAR CYYG 242016Z 02017KT 15SM BKN011 BKN100 16/12 A2976 RMK SC6AC1 SLP079
                 DENSITY ALT 500FT =
2018-06-24 20:00 METAR CYYG 242000Z 01014G19KT 15SM BKN014 BKN100 17/14 A2975 RMK SC5AC2 SLP076
                 DENSITY ALT 700FT =
2018-06-24 19:00 METAR CYYG 241900Z 35007KT 310V020 15SM SCT020 BKN130 19/14 A2973 RMK SC4AC2
                 SLP069 DENSITY ALT 900FT =
2018-06-24 18:00 METAR CYYG 241800Z 34005KT 260V360 15SM FEW012 BKN015 18/15 A2971 RMK SC2SC5
                 SLP064 DENSITY ALT 800FT =
2018-06-24 17:15 METAR CYYG 241715Z 27004KT 240V320 15SM OVC012 17/15 A2971 RMK SC8 SLP063
                 DENSITY ALT 700FT =
2018-06-24 17:00 METAR CYYG 241700Z 26003KT 220V300 15SM OVC010 17/14 A2970 RMK SC8 SLP061
                 DENSITY ALT 700FT =
2018-06-24 16:00 METAR CYYG 241600Z 26003KT 10SM OVC008 15/13 A2971 RMK SF8 SLP063 DENSITY ALT
                 500FT =
2018-06-24 15:00 METAR CYYG 241500Z 01004KT 310V030 10SM OVC006 13/12 A2970 RMK SF8 SLP060
                 DENSITY ALT 300FT =
2018-06-24 14:54 METAR CYYG 241454Z 01004KT 280V020 10SM OVC006 13/12 A2970 RMK SF8 SLP060
                 DENSITY ALT 300FT =
2018-06-24 14:25 METAR CYYG 241425Z 36004KT 300V020 8SM -DZ OVC005 13/12 A2970 RMK SF8 VIS N LWR
                 SLP058 DENSITY ALT 300FT =
2018-06-24 14:00 METAR CYYG 241400Z 03003KT 350V050 4SM -DZ BR BKN004 OVC006 13/12 A2970 RMK
                 FG2SF4SF2 CIG RAG SLP058 DENSITY ALT 200FT =
2018-06-24 13:52 METAR CYYG 241352Z 03005KT 4SM -DZ BR BKN004 OVC010 13/12 A2970 RMK FG2SF5SC1
                 CIG RAG SLP058 DENSITY ALT 200FT =
2018-06-24 13:35 METAR CYYG 241335Z 36005KT 2SM -DZ BR BKN003 OVC006 12/12 A2970 RMK FG4SF3SF1
                 CIG RAG SLP058 DENSITY ALT 200FT =
2018-06-24 13:15 METAR CYYG 241315Z 35005KT 2 1/2SM -DZ BR SCT004 BKN006 OVC010 12/12 A2970 RMK
                 FG2SF2SF3SC1 CIG RAG SLP059 DENSITY ALT 200FT =
2018-06-24 13:00 METAR CYYG 241300Z 34007KT 310V010 2 1/2SM -DZ BR OVC004 12/12 A2970 RMK FG4SF4
                 CIG RAG SLP059 =
2018-06-24 12:33 METAR CYYG 241233Z 01006KT 2 1/2SM -DZ BR BKN004 OVC010 12/11 A2970 RMK
                 FG4SF3SC1 CIG RAG SLP060 =
2018-06-24 12:19 METAR CYYG 241219Z 34004KT 2 1/2SM -RA BR OVC005 OVC010 12/12 A2970 RMK
                 FG4SF5SC3 CIG RAG SLP060 DENSITY ALT 200FT =
2018-06-24 12:00 METAR CYYG 241200Z 36004KT 10SM FEW003 BKN006 OVC040 12/11 A2970 RMK SF2SF5SC1
                 VIS S-W LWR SLP058 DENSITY ALT 200FT =
2018-06-24 11:45 METAR CYYG 241145Z 04005KT 030V100 10SM FEW003 BKN010 OVC040 12/11 A2969 RMK
                 SF2SC5SC1 SLP057 DENSITY ALT 200FT =
2018-06-24 11:16 METAR CYYG 241116Z 10005KT 8SM -RA BKN003 BKN020 OVC040 12/11 A2969 RMK
                 SF5SC1SC2 CIG RAG SLP057 =
2018-06-24 11:00 METAR CYYG 241100Z 10006KT 8SM -RA SCT003 BKN020 OVC040 12/11 A2970 RMK
                 SF4SC3SC1 SLP060 =
2018-06-24 10:00 METAR CYYG 241000Z 07003KT 010V080 10SM -RA FEW020 BKN030 OVC070 11/11 A2972 RMK
                 SC2SC5AC1 SLP065 =
2018-06-24 09:00 METAR CYYG 240900Z 01005KT 15SM -RA FEW012 BKN031 OVC070 11/10 A2972 RMK
                 SC2SC3AC3 SLP065 =
2018-06-24 08:00 METAR CYYG 240800Z 33007KT 310V010 15SM -RA BKN020 OVC058 14/10 A2973 RMK SC5SC3
                 SLP069 DENSITY ALT 300FT =
2018-06-24 07:00 METAR CYYG 240700Z 02003KT 15SM -RA OVC058 14/13 A2975 RMK SC8 SLP075 DENSITY
                 ALT 400FT =
2018-06-24 06:00 METAR CYYG 240600Z 26002KT 15SM -RA OVC068 15/13 A2978 RMK AC8 SLP085 DENSITY
                 ALT 400FT =
2018-06-24 05:00 METAR CYYG 240500Z 19006KT 15SM -RA OVC090 15/13 A2980 RMK AC8 SLP093 DENSITY
                 ALT 300FT =
2018-06-24 04:00 METAR CYYG 240400Z 17009KT 15SM OVC110 15/12 A2982 RMK AC8 SLP100 DENSITY ALT
                 400FT =
2018-06-24 03:00 METAR CYYG 240300Z 18010KT 15SM OVC140 15/11 A2985 RMK AC8 SLP109 DENSITY ALT
                 300FT =
2018-06-24 02:00 METAR CYYG 240200Z 19011KT 15SM OVC150 16/11 A2986 RMK AC8 SLP115 DENSITY ALT
                 400FT =
2018-06-24 01:00 METAR CYYG 240100Z 18006KT 15SM BKN160 16/09 A2988 RMK AC7 SLP121 DENSITY ALT
                 400FT =

Support USWX by starting your Amazon purchase here.